Time;durP1;ratioP1;P1;durP2;ratioP2;P2;SDS_P1;SDS_P2;PMS_P1;PMS_P2;Temp;Humidity;BMP_temperature;BMP_pressure;BME280_temperature;BME280_humidity;BME280_pressure;Samples;Min_cycle;Max_cycle;Signal;HPM_P1;HPM_P2
2021/07/01 00:01:37;;;;;;;18.67;13.38;;;;;;;16.35;67.09;101296.03;5031588;28;20049;-39
2021/07/01 00:04:05;;;;;;;24.02;15.55;;;;;;;16.30;67.37;101293.56;5021200;28;20506;-39
2021/07/01 00:06:32;;;;;;;21.02;14.00;;;;;;;16.27;67.59;101294.28;5031596;28;20228;-40
2021/07/01 00:09:03;;;;;;;18.02;13.13;;;;;;;16.30;67.63;101296.34;5032156;28;20425;-38
2021/07/01 00:11:33;;;;;;;23.00;13.80;;;;;;;16.26;67.60;101295.47;5032309;28;20111;-39
2021/07/01 00:14:00;;;;;;;22.13;13.80;;;;;;;16.29;67.30;101302.28;5031031;28;20384;-39
2021/07/01 00:16:27;;;;;;;21.60;14.82;;;;;;;16.34;67.35;101300.00;5031678;28;20479;-40
2021/07/01 00:18:54;;;;;;;21.20;14.98;;;;;;;16.25;67.62;101296.66;5013757;28;20037;-39
2021/07/01 00:21:20;;;;;;;24.13;15.05;;;;;;;16.26;67.50;101301.06;5030118;28;20533;-39
2021/07/01 00:23:47;;;;;;;21.15;13.90;;;;;;;16.23;67.72;101298.22;5028607;28;20041;-40
2021/07/01 00:26:14;;;;;;;22.15;15.88;;;;;;;16.15;68.06;101300.03;5031197;28;20069;-39
2021/07/01 00:28:45;;;;;;;20.80;12.63;;;;;;;16.09;68.02;101304.31;5031494;28;20053;-39
2021/07/01 00:31:12;;;;;;;23.80;16.42;;;;;;;16.05;68.31;101295.03;5030940;28;20403;-39
2021/07/01 00:33:39;;;;;;;23.10;15.40;;;;;;;16.02;68.42;101287.41;5031411;28;20057;-39
2021/07/01 00:36:13;;;;;;;24.15;15.75;;;;;;;16.01;68.36;101290.56;5026490;28;20407;-39
2021/07/01 00:38:40;;;;;;;25.20;15.95;;;;;;;15.93;68.71;101295.22;5030998;28;20055;-40
2021/07/01 00:41:07;;;;;;;23.17;16.75;;;;;;;15.87;69.06;101298.66;5013628;28;20056;-41
2021/07/01 00:43:34;;;;;;;22.85;16.23;;;;;;;15.81;69.25;101298.13;5031304;28;20506;-39
2021/07/01 00:46:02;;;;;;;26.67;16.42;;;;;;;15.79;69.14;101300.50;5030593;28;20045;-40
2021/07/01 00:48:28;;;;;;;30.20;18.88;;;;;;;15.72;69.64;101290.00;5031733;28;20064;-39
2021/07/01 00:50:58;;;;;;;23.73;16.48;;;;;;;15.67;69.67;101295.06;5030392;28;20041;-40
2021/07/01 00:53:26;;;;;;;26.45;16.33;;;;;;;15.61;69.78;101299.31;5029771;28;20490;-41
2021/07/01 00:55:53;;;;;;;30.00;17.60;;;;;;;15.57;69.93;101292.84;5030240;28;20087;-40
2021/07/01 00:58:22;;;;;;;25.88;17.48;;;;;;;15.58;69.94;101294.47;5030766;28;20037;-40
2021/07/01 01:03:24;;;;;;;24.08;16.80;;;;;;;15.54;70.06;101301.97;5027295;28;20129;-39
2021/07/01 01:05:51;;;;;;;24.77;17.55;;;;;;;15.49;70.32;101296.66;5026669;28;20041;-40
2021/07/01 01:08:18;;;;;;;23.33;14.50;;;;;;;15.52;70.08;101296.72;5023214;28;20413;-40
2021/07/01 01:10:45;;;;;;;24.42;16.67;;;;;;;15.56;69.85;101303.22;5030131;28;20136;-39
2021/07/01 01:13:23;;;;;;;25.48;16.27;;;;;;;15.53;70.15;101303.94;5031242;28;20065;-39
2021/07/01 01:15:59;;;;;;;26.73;15.85;;;;;;;15.47;70.47;101299.81;5027277;28;20029;-39
2021/07/01 01:18:26;;;;;;;21.77;15.88;;;;;;;15.49;70.03;101302.25;5022709;28;20136;-39
2021/07/01 01:20:58;;;;;;;17.65;13.02;;;;;;;15.45;70.28;101306.91;5030396;28;20530;-39
2021/07/01 01:23:26;;;;;;;32.97;17.10;;;;;;;15.44;70.12;101310.84;5013071;28;20407;-42
2021/07/01 01:26:00;;;;;;;23.45;15.20;;;;;;;15.46;70.38;101311.34;5027144;28;20061;-40
2021/07/01 01:28:32;;;;;;;24.52;16.40;;;;;;;15.44;70.27;101322.00;5021161;28;20057;-39
2021/07/01 01:30:59;;;;;;;22.40;14.35;;;;;;;15.41;70.28;101317.19;5013348;28;20099;-39
2021/07/01 01:33:26;;;;;;;27.33;17.35;;;;;;;15.41;70.29;101317.19;5030769;28;20042;-39
2021/07/01 01:35:53;;;;;;;25.20;16.38;;;;;;;15.36;70.51;101323.00;5011665;28;20215;-41
2021/07/01 01:38:21;;;;;;;25.73;17.65;;;;;;;15.32;70.57;101319.34;5018273;28;20049;-41
2021/07/01 01:40:49;;;;;;;23.73;15.13;;;;;;;15.27;70.65;101317.66;5030683;28;20038;-40
2021/07/01 01:43:17;;;;;;;24.90;15.13;;;;;;;15.24;70.59;101316.41;5025056;28;20046;-40
2021/07/01 01:45:45;;;;;;;23.17;15.68;;;;;;;15.22;70.54;101318.72;5012842;28;20065;-39
2021/07/01 01:48:13;;;;;;;26.85;15.50;;;;;;;15.18;70.77;101312.25;5008729;28;20446;-40
2021/07/01 01:50:41;;;;;;;28.60;17.98;;;;;;;15.14;70.67;101314.16;5030394;28;20487;-38
2021/07/01 01:53:10;;;;;;;28.08;16.92;;;;;;;15.10;70.71;101315.25;5024488;28;20499;-39
2021/07/01 01:55:37;;;;;;;28.20;16.77;;;;;;;15.09;70.75;101317.22;5026350;28;20054;-39
2021/07/01 01:58:05;;;;;;;28.23;16.90;;;;;;;15.10;70.52;101318.84;5026901;28;20401;-39
2021/07/01 02:00:34;;;;;;;24.83;15.40;;;;;;;15.09;70.60;101306.06;5012732;28;20487;-39
2021/07/01 02:03:02;;;;;;;22.58;15.45;;;;;;;15.09;70.36;101319.22;5027378;28;20128;-39
2021/07/01 02:05:30;;;;;;;25.08;15.43;;;;;;;15.15;70.20;101309.38;5030090;28;20132;-39
2021/07/01 02:07:57;;;;;;;27.60;15.02;;;;;;;15.16;70.01;101311.81;5009805;28;20045;-41
2021/07/01 02:10:34;;;;;;;24.55;14.88;;;;;;;15.23;69.86;101311.16;5029438;28;20049;-40
2021/07/01 02:13:03;;;;;;;22.15;14.43;;;;;;;15.25;69.52;101306.84;5030416;28;20053;-40
2021/07/01 02:15:30;;;;;;;22.00;14.43;;;;;;;15.21;69.68;101311.53;5029522;28;20050;-39
2021/07/01 02:17:57;;;;;;;26.58;15.85;;;;;;;15.17;69.90;101307.84;5026580;28;20053;-40
2021/07/01 02:20:26;;;;;;;25.98;16.13;;;;;;;15.13;69.80;101306.16;5029898;28;20073;-40
2021/07/01 02:22:54;;;;;;;23.92;14.23;;;;;;;15.11;69.86;101309.31;5029577;28;20391;-40
2021/07/01 02:25:20;;;;;;;25.40;16.00;;;;;;;15.15;69.90;101315.78;5030226;28;20124;-40
2021/07/01 02:27:54;;;;;;;29.73;17.98;;;;;;;15.16;70.15;101305.44;5023168;28;20053;-40
2021/07/01 02:30:21;;;;;;;29.58;17.70;;;;;;;15.02;70.87;101297.53;5032817;28;20674;-39
2021/07/01 02:32:48;;;;;;;26.88;15.57;;;;;;;14.96;71.19;101300.94;5033919;28;20037;-39
2021/07/01 02:35:31;;;;;;;27.23;15.15;;;;;;;14.99;71.17;101298.25;5033526;28;20376;-39
2021/07/01 02:38:00;;;;;;;40.60;18.90;;;;;;;14.94;71.77;101311.66;5032050;28;20053;-39
2021/07/01 02:40:28;;;;;;;30.83;16.83;;;;;;;14.93;72.09;101302.47;5033049;28;20081;-39
2021/07/01 02:42:55;;;;;;;29.52;17.88;;;;;;;14.91;72.23;101292.84;5028551;28;20103;-39
2021/07/01 02:45:22;;;;;;;41.80;19.40;;;;;;;14.92;72.49;101300.88;5033132;28;20041;-40
2021/07/01 02:47:49;;;;;;;38.47;17.45;;;;;;;14.93;72.55;101302.47;5033003;28;20136;-39
2021/07/01 02:50:17;;;;;;;38.53;18.75;;;;;;;14.85;72.97;101306.25;5033065;28;20100;-40
2021/07/01 02:52:44;;;;;;;37.63;17.75;;;;;;;14.81;73.30;101304.56;5027971;28;20049;-39
2021/07/01 02:55:11;;;;;;;62.83;19.13;;;;;;;14.78;73.38;101311.66;5019565;28;20037;-39
2021/07/01 02:57:38;;;;;;;37.30;18.67;;;;;;;14.68;73.83;101301.06;5032090;28;20049;-39
2021/07/01 03:00:07;;;;;;;43.95;18.98;;;;;;;14.67;73.93;101299.44;5027634;28;20045;-39
2021/07/01 03:02:34;;;;;;;57.50;20.05;;;;;;;14.68;74.12;101301.06;5025087;28;20141;-46
2021/07/01 03:05:03;;;;;;;46.92;18.55;;;;;;;14.69;74.27;101296.31;5012810;28;20056;-39
2021/07/01 03:07:29;;;;;;;39.05;22.10;;;;;;;14.68;74.17;101306.63;5032221;28;20076;-39
2021/07/01 03:09:57;;;;;;;50.72;21.15;;;;;;;14.73;74.19;101292.44;5033205;28;20080;-39
2021/07/01 03:12:24;;;;;;;39.13;19.67;;;;;;;14.79;74.17;101296.56;5032660;28;20088;-39
2021/07/01 03:14:51;;;;;;;44.47;21.25;;;;;;;14.82;74.35;101292.25;5032901;28;20100;-39
2021/07/01 03:17:19;;;;;;;62.80;20.95;;;;;;;14.71;74.48;101294.78;5032661;28;20080;-39
2021/07/01 03:19:45;;;;;;;34.40;18.20;;;;;;;14.68;74.66;101289.09;5033178;28;20057;-41
2021/07/01 03:22:13;;;;;;;40.60;19.63;;;;;;;14.71;74.50;101294.78;5027483;28;20406;-41
2021/07/01 03:24:39;;;;;;;39.92;21.50;;;;;;;14.71;74.50;101286.41;5032456;28;20041;-39
2021/07/01 03:27:07;;;;;;;44.78;21.63;;;;;;;14.70;74.67;101282.00;5032725;28;20395;-40
2021/07/01 03:29:34;;;;;;;42.80;21.88;;;;;;;14.74;74.73;101287.66;5032568;28;20073;-39
2021/07/01 03:32:01;;;;;;;43.25;22.27;;;;;;;14.76;74.71;101285.31;5024879;28;20038;-40
2021/07/01 03:34:29;;;;;;;58.38;21.67;;;;;;;14.71;74.69;101291.16;5030002;28;20053;-39
2021/07/01 03:36:55;;;;;;;39.58;21.60;;;;;;;14.72;74.73;101288.00;5031808;28;20049;-39
2021/07/01 03:39:22;;;;;;;52.55;25.15;;;;;;;14.74;74.83;101294.06;5014072;28;20041;-49
2021/07/01 03:41:49;;;;;;;54.35;23.08;;;;;;;14.74;74.79;101294.06;5029219;28;20076;-38
2021/07/01 03:44:17;;;;;;;35.42;19.48;;;;;;;14.77;74.76;101304.50;5014844;28;20053;-43
2021/07/01 03:46:47;;;;;;;36.25;20.58;;;;;;;14.79;75.04;101301.31;5032003;28;20054;-40
2021/07/01 03:49:14;;;;;;;46.35;22.13;;;;;;;14.83;75.01;101297.47;5030864;28;20077;-39
2021/07/01 03:51:41;;;;;;;43.60;20.23;;;;;;;14.84;74.98;101296.28;5028497;28;20041;-43
2021/07/01 03:54:08;;;;;;;41.15;22.42;;;;;;;14.88;75.01;101297.19;5031813;28;20100;-39
2021/07/01 03:56:41;;;;;;;41.78;22.42;;;;;;;14.94;74.89;101309.69;5031433;28;20053;-41
2021/07/01 03:59:12;;;;;;;33.63;19.75;;;;;;;15.03;74.46;101307.53;5029483;28;20049;-39
2021/07/01 04:01:41;;;;;;;37.65;20.50;;;;;;;15.04;74.48;101311.91;5030212;28;20149;-40
2021/07/01 04:04:09;;;;;;;35.25;20.60;;;;;;;15.05;74.46;101312.72;5021987;28;20096;-40
2021/07/01 04:06:36;;;;;;;55.72;21.58;;;;;;;15.06;74.38;101312.34;5031527;28;20046;-39
2021/07/01 04:09:06;;;;;;;47.28;21.33;;;;;;;15.10;74.27;101304.09;5031701;28;20069;-40
2021/07/01 04:11:37;;;;;;;38.58;20.38;;;;;;;15.09;74.11;101306.06;5027582;28;20553;-44
2021/07/01 04:14:04;;;;;;;32.63;19.60;;;;;;;15.06;74.21;101306.00;5026469;28;20077;-40
2021/07/01 04:16:31;;;;;;;34.58;20.15;;;;;;;15.09;74.30;101305.28;5029652;28;20104;-39
2021/07/01 04:18:59;;;;;;;38.10;21.60;;;;;;;15.08;74.37;101301.66;5029008;28;20424;-41
2021/07/01 04:21:27;;;;;;;37.47;21.55;;;;;;;15.12;74.16;101308.13;5027960;28;20156;-42
2021/07/01 04:23:56;;;;;;;42.05;20.95;;;;;;;15.12;74.37;101304.53;5024974;28;20065;-40
2021/07/01 04:26:23;;;;;;;45.78;23.80;;;;;;;15.06;74.23;101309.56;5029009;28;20464;-40
2021/07/01 04:28:51;;;;;;;44.92;22.30;;;;;;;15.06;74.61;101309.56;5028496;28;20049;-39
2021/07/01 04:31:21;;;;;;;46.78;22.80;;;;;;;15.07;74.53;101307.59;5009228;28;20041;-44
2021/07/01 04:33:55;;;;;;;41.10;21.58;;;;;;;15.10;74.25;101312.44;5010773;28;20091;-39
2021/07/01 04:36:25;;;;;;;56.10;22.40;;;;;;;15.18;74.12;101312.25;5027081;28;20107;-40
2021/07/01 04:38:54;;;;;;;42.10;21.65;;;;;;;15.18;74.15;101314.25;5028234;28;20037;-39
2021/07/01 04:41:22;;;;;;;62.70;23.20;;;;;;;15.13;74.28;101320.09;5010159;28;20030;-39
2021/07/01 04:43:52;;;;;;;64.18;22.52;;;;;;;15.01;74.43;101321.00;5023254;28;20821;-39
2021/07/01 04:46:21;;;;;;;42.75;20.10;;;;;;;14.97;74.62;101317.34;5026463;28;20053;-39
2021/07/01 04:48:50;;;;;;;36.83;20.00;;;;;;;14.98;74.46;101323.72;5024773;28;20041;-39
2021/07/01 04:51:19;;;;;;;80.50;22.70;;;;;;;14.97;74.42;101320.13;5028095;28;20506;-39
2021/07/01 04:53:46;;;;;;;44.38;21.90;;;;;;;14.93;74.73;101313.63;5025276;28;20574;-42
2021/07/01 04:56:13;;;;;;;49.38;22.73;;;;;;;14.95;74.88;101316.88;5005802;28;20498;-40
2021/07/01 04:58:41;;;;;;;83.97;23.15;;;;;;;14.93;74.77;101313.63;5029772;28;20047;-42
2021/07/01 05:01:08;;;;;;;72.63;21.02;;;;;;;14.88;75.01;101311.13;5011150;28;20175;-42
2021/07/01 05:03:35;;;;;;;85.40;24.73;;;;;;;14.91;75.03;101307.63;5023566;28;20055;-42
2021/07/01 05:06:03;;;;;;;62.15;21.77;;;;;;;14.88;75.08;101313.91;5028110;28;20057;-41
2021/07/01 05:08:31;;;;;;;47.88;22.35;;;;;;;14.88;75.15;101316.69;5029092;28;20041;-41
2021/07/01 05:10:58;;;;;;;73.32;23.17;;;;;;;14.96;74.74;101301.75;5028063;28;20140;-41
2021/07/01 05:13:25;;;;;;;48.08;20.92;;;;;;;15.03;74.83;101304.75;5027760;28;20065;-40
2021/07/01 05:15:52;;;;;;;48.45;20.55;;;;;;;15.04;74.79;101297.97;5028267;28;20038;-41
2021/07/01 05:18:19;;;;;;;57.90;19.20;;;;;;;15.04;74.57;101297.97;5028673;28;20071;-40
2021/07/01 05:20:47;;;;;;;62.20;19.55;;;;;;;15.03;74.70;101309.50;5027581;28;20050;-41
2021/07/01 05:23:13;;;;;;;63.17;20.23;;;;;;;15.01;74.74;101303.50;5028779;28;20144;-41
2021/07/01 05:25:41;;;;;;;34.53;17.88;;;;;;;14.96;75.03;101298.97;5022671;28;20187;-41
2021/07/01 05:28:12;;;;;;;41.58;17.83;;;;;;;15.00;75.18;101290.69;5026284;28;20070;-40
2021/07/01 05:30:42;;;;;;;64.40;20.10;;;;;;;14.98;75.14;101299.44;5028515;28;20123;-41
2021/07/01 05:33:10;;;;;;;53.75;18.55;;;;;;;15.00;75.05;101297.09;5028736;28;20337;-41
2021/07/01 05:35:36;;;;;;;58.30;19.58;;;;;;;15.03;75.32;101307.53;5010236;28;20046;-41
2021/07/01 05:38:03;;;;;;;38.72;17.92;;;;;;;15.05;75.37;101307.97;5026327;28;20052;-41
2021/07/01 05:40:30;;;;;;;45.08;19.70;;;;;;;15.09;75.42;101300.47;5028616;28;20041;-41
2021/07/01 05:42:57;;;;;;;49.35;18.08;;;;;;;15.12;75.34;101304.53;5024221;28;20051;-41
2021/07/01 05:45:24;;;;;;;39.55;19.25;;;;;;;15.12;75.40;101299.75;5027388;28;20123;-44
2021/07/01 05:47:51;;;;;;;35.75;16.63;;;;;;;15.16;75.24;101306.25;5028189;28;20148;-41
2021/07/01 05:50:18;;;;;;;49.60;17.25;;;;;;;15.17;75.13;101302.28;5027936;28;20443;-40
2021/07/01 05:52:49;;;;;;;29.88;15.98;;;;;;;15.23;74.93;101297.22;5028453;28;20053;-44
2021/07/01 05:55:18;;;;;;;42.83;16.60;;;;;;;15.27;75.04;101300.09;5028168;28;20507;-41
2021/07/01 05:57:45;;;;;;;38.72;16.83;;;;;;;15.27;74.78;101303.72;5027207;28;20494;-43
2021/07/01 06:00:14;;;;;;;46.92;16.83;;;;;;;15.23;74.96;101288.84;5014418;28;20808;-41
2021/07/01 06:02:41;;;;;;;43.42;16.02;;;;;;;15.25;75.03;101292.91;5024892;28;20054;-40
2021/07/01 06:05:08;;;;;;;39.00;17.63;;;;;;;15.27;75.15;101295.34;5028754;28;20504;-44
2021/07/01 06:07:36;;;;;;;60.60;17.55;;;;;;;15.27;75.05;101293.34;5022501;28;20149;-40
2021/07/01 06:10:06;;;;;;;52.88;17.98;;;;;;;15.19;75.56;101310.28;5029572;28;20069;-41
2021/07/01 06:12:33;;;;;;;49.05;17.98;;;;;;;15.14;75.51;101307.78;5030169;28;20049;-39
2021/07/01 06:15:03;;;;;;;47.92;18.35;;;;;;;15.17;75.55;101313.44;5010184;28;20052;-41
2021/07/01 06:17:33;;;;;;;65.15;19.73;;;;;;;15.20;75.34;101312.72;5030971;28;20473;-40
2021/07/01 06:20:03;;;;;;;62.70;19.13;;;;;;;15.17;75.52;101319.00;5012136;28;20033;-40
2021/07/01 06:22:32;;;;;;;59.85;18.60;;;;;;;15.11;75.67;101316.88;5024794;28;20050;-45
2021/07/01 06:25:00;;;;;;;44.47;15.40;;;;;;;15.14;75.58;101314.16;5020429;28;20077;-40
2021/07/01 06:27:38;;;;;;;53.75;17.67;;;;;;;15.18;75.57;101309.47;5030285;28;20156;-40
2021/07/01 06:30:22;;;;;;;62.58;16.48;;;;;;;15.18;75.52;101312.25;5024527;28;20124;-40
2021/07/01 06:32:52;;;;;;;;;;;;;;;15.15;75.70;101317.75;5030968;28;20810;-40
2021/07/01 06:35:23;;;;;;;38.75;17.92;;;;;;;15.17;75.23;101312.63;5030547;28;20403;-40
2021/07/01 06:37:53;;;;;;;36.05;15.95;;;;;;;15.23;75.33;101316.75;5013094;28;20463;-40
2021/07/01 06:40:22;;;;;;;36.80;15.73;;;;;;;15.30;75.31;101304.97;5011560;28;20037;-41
2021/07/01 06:42:57;;;;;;;42.45;15.88;;;;;;;15.36;75.21;101309.88;5030870;28;20050;-40
2021/07/01 06:45:24;;;;;;;39.17;15.95;;;;;;;15.47;75.09;101310.97;5030545;28;20115;-40
2021/07/01 06:47:54;;;;;;;28.50;14.02;;;;;;;15.55;74.95;101312.75;5031126;28;20060;-40
2021/07/01 06:50:23;;;;;;;34.58;15.55;;;;;;;15.63;74.72;101302.53;5013562;28;20076;-40
2021/07/01 06:52:53;;;;;;;30.15;16.02;;;;;;;15.59;74.99;101308.06;5023606;28;20104;-40
2021/07/01 06:55:21;;;;;;;35.47;15.70;;;;;;;15.65;74.96;101314.97;5029749;28;20166;-43
2021/07/01 06:57:48;;;;;;;26.30;13.85;;;;;;;15.63;74.86;101314.53;5012854;28;20045;-40
2021/07/01 07:00:20;;;;;;;27.55;14.88;;;;;;;15.66;74.76;101318.56;5029630;28;20752;-40
2021/07/01 07:02:47;;;;;;;22.98;13.65;;;;;;;15.73;74.37;101316.72;5022848;28;20399;-43
2021/07/01 07:05:16;;;;;;;25.50;14.32;;;;;;;15.74;74.17;101323.94;5024695;28;20050;-40
2021/07/01 07:07:46;;;;;;;26.35;14.55;;;;;;;15.72;74.18;101322.69;5026278;28;20414;-41
2021/07/01 07:10:15;;;;;;;23.83;12.63;;;;;;;15.73;74.52;101318.72;5023894;28;20395;-40
2021/07/01 07:12:44;;;;;;;25.67;15.10;;;;;;;15.86;74.13;101316.59;5026551;28;20145;-40
2021/07/01 07:15:14;;;;;;;26.08;14.35;;;;;;;15.85;74.09;101321.38;5011929;28;20045;-42
2021/07/01 07:17:41;;;;;;;27.17;13.50;;;;;;;15.83;73.88;101320.94;4992864;28;20442;-40
2021/07/01 07:20:13;;;;;;;31.75;15.50;;;;;;;15.82;74.03;101322.09;5030182;28;20045;-40
2021/07/01 07:22:41;;;;;;;27.25;15.18;;;;;;;15.83;73.83;101320.94;5030381;28;20053;-42
2021/07/01 07:25:10;;;;;;;33.42;17.00;;;;;;;15.80;74.06;101321.66;5028738;28;20368;-40
2021/07/01 07:27:39;;;;;;;32.58;14.90;;;;;;;15.80;74.00;101316.09;5029188;28;20073;-44
2021/07/01 07:30:08;;;;;;;27.60;13.82;;;;;;;15.84;74.12;101322.53;5024682;28;20136;-41
2021/07/01 07:32:39;;;;;;;25.42;13.50;;;;;;;15.89;73.71;101311.06;5028873;28;20049;-40
2021/07/01 07:35:11;;;;;;;25.60;14.63;;;;;;;15.98;73.96;101303.28;5030414;28;20038;-40
2021/07/01 07:37:40;;;;;;;21.85;13.25;;;;;;;16.04;73.81;101307.41;5029993;28;20124;-40
2021/07/01 07:40:08;;;;;;;24.42;15.27;;;;;;;16.04;73.79;101307.41;5029496;28;20050;-40
2021/07/01 07:42:38;;;;;;;24.52;13.88;;;;;;;16.05;74.01;101308.19;5019914;28;20054;-40
2021/07/01 07:45:08;;;;;;;22.75;13.95;;;;;;;16.10;73.81;101311.50;5030013;28;20124;-40
2021/07/01 07:47:35;;;;;;;20.92;12.82;;;;;;;16.15;73.74;101314.00;5028823;28;20041;-40
2021/07/01 07:50:02;;;;;;;25.60;14.70;;;;;;;16.29;73.41;101319.88;5029384;28;20099;-42
2021/07/01 07:52:31;;;;;;;23.92;13.00;;;;;;;16.41;72.77;101318.91;5030553;28;20053;-39
2021/07/01 07:55:08;;;;;;;25.17;13.75;;;;;;;16.44;72.67;101310.56;5027304;28;20124;-41
2021/07/01 07:57:37;;;;;;;26.60;15.30;;;;;;;16.50;72.59;101318.66;5023510;28;20109;-45
2021/07/01 08:00:05;;;;;;;25.80;16.02;;;;;;;16.45;72.52;101314.19;5029337;28;20403;-40
2021/07/01 08:02:53;;;;;;;27.75;15.50;;;;;;;16.48;72.38;101315.44;5022916;28;20145;-41
2021/07/01 08:05:24;;;;;;;25.83;15.27;;;;;;;16.39;72.70;101307.28;5028281;28;20049;-41
2021/07/01 08:07:52;;;;;;;26.08;14.70;;;;;;;16.41;72.76;101311.31;5027635;28;20049;-40
2021/07/01 08:10:30;;;;;;;23.60;13.67;;;;;;;16.32;72.93;101319.13;5012455;28;20140;-41
2021/07/01 08:13:04;;;;;;;20.25;13.25;;;;;;;16.33;73.17;101319.97;5007469;28;20128;-40
2021/07/01 08:15:35;;;;;;;22.15;15.13;;;;;;;16.49;72.81;101319.84;5029471;28;20049;-46
2021/07/01 08:18:04;;;;;;;28.02;16.02;;;;;;;16.56;72.66;101320.00;5027398;28;20077;-40
2021/07/01 08:20:32;;;;;;;23.13;14.10;;;;;;;16.62;72.25;101326.91;5028467;28;20498;-40
2021/07/01 08:22:59;;;;;;;25.92;14.93;;;;;;;16.66;72.24;101327.75;5028578;28;20073;-42
2021/07/01 08:25:30;;;;;;;23.88;14.88;;;;;;;16.67;72.17;101321.00;5029125;28;20061;-40
2021/07/01 08:27:57;;;;;;;26.40;15.38;;;;;;;16.66;72.19;101327.75;5028265;28;20045;-40
2021/07/01 08:30:26;;;;;;;23.25;15.18;;;;;;;16.65;72.15;101320.56;5028237;28;20136;-43
2021/07/01 08:32:57;;;;;;;26.45;14.80;;;;;;;16.70;72.25;101325.84;5029521;28;20080;-40
2021/07/01 08:35:26;;;;;;;23.13;15.07;;;;;;;16.82;71.83;101320.06;5011916;28;20073;-49
2021/07/01 08:37:58;;;;;;;23.85;14.77;;;;;;;16.90;71.65;101319.00;5026910;28;20036;-41
2021/07/01 08:40:35;;;;;;;23.30;14.45;;;;;;;16.97;71.32;101311.53;5027381;28;20099;-41
2021/07/01 08:43:04;;;;;;;24.38;15.95;;;;;;;17.01;71.27;101311.59;5004382;28;20119;-40
2021/07/01 08:45:59;;;;;;;24.42;15.88;;;;;;;17.01;71.22;101317.19;5026866;28;20896;-46
2021/07/01 08:48:41;;;;;;;22.40;13.32;;;;;;;17.16;70.86;101319.03;5021600;28;20045;-41
2021/07/01 08:51:15;;;;;;;26.58;16.60;;;;;;;17.26;70.51;101307.19;5029183;28;20524;-40
2021/07/01 08:54:17;;;;;;;23.80;14.98;;;;;;;17.20;70.78;101314.31;5027905;28;20146;-41
2021/07/01 08:56:44;;;;;;;25.30;15.02;;;;;;;17.29;70.70;101309.22;5005183;28;20084;-42
2021/07/01 08:59:12;;;;;;;24.77;14.98;;;;;;;17.39;70.72;101314.22;5027348;28;20045;-40
2021/07/01 09:01:41;;;;;;;24.58;14.75;;;;;;;17.51;70.40;101313.97;5028290;28;20045;-43
2021/07/01 09:04:13;;;;;;;25.95;15.45;;;;;;;17.50;70.33;101317.94;5026996;28;20050;-45
2021/07/01 09:06:40;;;;;;;24.92;16.35;;;;;;;17.53;70.14;101308.81;5027101;28;20061;-40
2021/07/01 09:09:11;;;;;;;22.90;15.55;;;;;;;17.63;69.82;101305.34;5027792;28;20848;-40
2021/07/01 09:11:41;;;;;;;21.57;14.20;;;;;;;17.68;69.64;101303.44;5019241;28;20576;-40
2021/07/01 09:14:10;;;;;;;24.45;14.45;;;;;;;17.79;69.53;101307.19;5027588;28;20491;-40
2021/07/01 09:16:38;;;;;;;25.63;15.07;;;;;;;17.90;69.36;101308.09;5018273;28;20526;-40
2021/07/01 09:19:06;;;;;;;20.77;12.93;;;;;;;17.97;69.40;101319.41;4994180;28;20042;-40
2021/07/01 09:21:34;;;;;;;24.42;14.88;;;;;;;18.11;69.41;101314.78;5014610;28;20847;-42
2021/07/01 09:24:04;;;;;;;22.58;14.80;;;;;;;18.23;69.14;101317.34;4991851;28;20052;-40
2021/07/01 09:26:32;;;;;;;23.00;15.23;;;;;;;18.30;68.88;101313.78;5000528;28;20498;-41
2021/07/01 09:28:59;;;;;;;22.23;14.27;;;;;;;18.31;68.84;101307.00;5009942;28;20041;-41
2021/07/01 09:31:27;;;;;;;24.08;15.30;;;;;;;18.28;68.55;101316.19;5007661;28;20041;-40
2021/07/01 09:33:55;;;;;;;22.60;14.77;;;;;;;18.26;68.47;101315.75;5013992;28;20120;-41
2021/07/01 09:36:24;;;;;;;23.98;15.85;;;;;;;18.36;68.35;101319.84;4993822;28;20111;-41
2021/07/01 09:38:54;;;;;;;25.10;15.82;;;;;;;18.47;68.29;101312.38;4995281;28;20120;-40
2021/07/01 09:41:23;;;;;;;29.27;16.33;;;;;;;18.51;68.00;101310.44;5012248;28;20827;-41
2021/07/01 09:43:51;;;;;;;23.20;16.05;;;;;;;18.53;67.99;101317.25;5014852;28;20109;-41
2021/07/01 09:46:23;;;;;;;25.77;16.95;;;;;;;18.56;67.80;101319.31;5014063;28;20638;-40
2021/07/01 09:48:52;;;;;;;20.92;14.77;;;;;;;18.61;67.48;101309.75;5016552;28;20457;-43
2021/07/01 09:51:20;;;;;;;25.25;16.48;;;;;;;18.69;67.45;101312.22;5001703;28;20415;-40
2021/07/01 09:53:50;;;;;;;23.00;14.15;;;;;;;18.78;67.10;101312.72;5011754;28;20116;-40
2021/07/01 09:56:40;;;;;;;23.00;15.40;;;;;;;18.84;66.50;101310.34;5016316;28;20092;-41
2021/07/01 09:59:19;;;;;;;23.63;15.68;;;;;;;18.83;66.60;101317.97;4994594;28;20038;-43
2021/07/01 10:01:46;;;;;;;22.23;15.38;;;;;;;18.80;66.78;101315.13;5010956;28;20069;-41
2021/07/01 10:04:13;;;;;;;19.67;13.93;;;;;;;18.78;66.68;101320.31;5008663;28;20041;-41
2021/07/01 10:06:40;;;;;;;18.50;13.75;;;;;;;18.81;66.52;101314.75;5016262;28;20049;-46
2021/07/01 10:09:07;;;;;;;19.50;13.95;;;;;;;18.76;66.34;101325.50;5013538;28;20034;-40
2021/07/01 10:11:41;;;;;;;23.58;16.52;;;;;;;18.74;66.20;101320.28;5018300;28;20046;-41
2021/07/01 10:14:11;;;;;;;22.45;14.90;;;;;;;18.68;66.18;101316.22;5002614;28;20038;-45
2021/07/01 10:16:39;;;;;;;23.42;14.40;;;;;;;18.79;66.28;101321.94;5020338;28;20087;-40
2021/07/01 10:19:09;;;;;;;21.75;14.57;;;;;;;18.91;66.09;101312.41;5026272;28;20157;-45
2021/07/01 10:21:37;;;;;;;20.15;13.95;;;;;;;18.97;66.07;101310.84;5001201;28;20111;-42
2021/07/01 10:24:20;;;;;;;22.83;14.98;;;;;;;19.04;65.37;101322.94;4995117;28;20071;-41
2021/07/01 10:26:51;;;;;;;20.33;14.95;;;;;;;19.11;65.67;101302.56;5014662;28;20084;-42
2021/07/01 10:29:19;;;;;;;23.33;15.40;;;;;;;19.04;65.51;101306.09;5011631;28;20128;-43
2021/07/01 10:31:54;;;;;;;23.73;15.88;;;;;;;18.98;65.17;101309.69;5012474;28;20061;-42
2021/07/01 10:34:21;;;;;;;24.38;16.52;;;;;;;19.03;65.28;101318.53;5001140;28;20065;-41
2021/07/01 10:37:11;;;;;;;22.85;16.85;;;;;;;19.01;65.05;101306.88;5008317;28;20066;-44
2021/07/01 10:39:40;;;;;;;24.88;18.48;;;;;;;19.09;65.40;101304.97;5010657;28;20046;-40
2021/07/01 10:42:07;;;;;;;28.80;18.63;;;;;;;19.20;65.10;101305.81;5009919;28;20419;-41
2021/07/01 10:44:41;;;;;;;29.23;19.63;;;;;;;19.26;64.92;101305.06;5009863;28;20050;-41
2021/07/01 10:47:30;;;;;;;26.75;18.73;;;;;;;19.33;64.57;101304.31;5009932;28;20479;-41
2021/07/01 10:50:00;;;;;;;27.00;18.20;;;;;;;19.47;65.05;101312.84;4994318;28;20406;-40
2021/07/01 10:52:38;;;;;;;32.95;20.23;;;;;;;19.58;64.17;101308.13;5010344;28;20472;-42
2021/07/01 10:55:06;;;;;;;31.45;20.50;;;;;;;19.63;64.60;101307.75;5011037;28;20041;-43
2021/07/01 10:57:56;;;;;;;29.17;19.40;;;;;;;19.81;64.45;101302.19;5012255;28;20133;-40
2021/07/01 11:00:44;;;;;;;32.50;19.70;;;;;;;19.95;63.82;101299.47;5010206;28;20042;-41
2021/07/01 11:03:28;;;;;;;31.38;19.75;;;;;;;20.00;63.82;101299.88;5009528;28;20124;-41
2021/07/01 11:06:13;;;;;;;26.83;18.90;;;;;;;20.11;63.53;101301.94;5010322;28;20038;-42
2021/07/01 11:08:55;;;;;;;27.85;18.50;;;;;;;20.42;63.31;101309.66;5008636;28;20037;-42
2021/07/01 11:11:33;;;;;;;25.80;17.65;;;;;;;20.49;63.01;101315.34;5011275;28;20070;-41
2021/07/01 11:14:08;;;;;;;23.67;16.30;;;;;;;20.57;62.77;101314.13;5010174;28;20416;-41
2021/07/01 11:16:46;;;;;;;22.02;15.68;;;;;;;20.56;61.92;101310.53;5011459;28;20050;-41
2021/07/01 11:19:18;;;;;;;21.90;16.60;;;;;;;20.47;61.88;101309.28;5010022;28;20061;-41
2021/07/01 11:21:52;;;;;;;23.13;17.73;;;;;;;20.41;62.29;101299.66;5018652;28;20053;-41
2021/07/01 11:24:23;;;;;;;23.48;16.00;;;;;;;20.38;62.48;101304.06;5008320;28;20511;-41